sensor_id;sensor_type;location;lat;lon;timestamp;P1;durP1;ratioP1;P2;durP2;ratioP2
71095;SDS011;58753;49.440;11.126;2022-08-19T00:00:47;27.05;;;17.08;;
71095;SDS011;58753;49.440;11.126;2022-08-19T00:03:15;24.17;;;15.40;;
71095;SDS011;58753;49.440;11.126;2022-08-19T00:05:41;29.55;;;16.60;;
71095;SDS011;58753;49.440;11.126;2022-08-19T00:08:06;27.98;;;17.25;;
71095;SDS011;58753;49.440;11.126;2022-08-19T00:10:32;32.37;;;18.43;;
71095;SDS011;58753;49.440;11.126;2022-08-19T00:12:59;29.02;;;17.35;;
71095;SDS011;58753;49.440;11.126;2022-08-19T00:15:24;33.53;;;18.97;;
71095;SDS011;58753;49.440;11.126;2022-08-19T00:17:50;30.48;;;18.17;;
71095;SDS011;58753;49.440;11.126;2022-08-19T00:20:17;28.77;;;17.87;;
71095;SDS011;58753;49.440;11.126;2022-08-19T00:30:15;26.58;;;15.57;;
71095;SDS011;58753;49.440;11.126;2022-08-19T00:32:41;24.83;;;16.27;;
71095;SDS011;58753;49.440;11.126;2022-08-19T00:35:07;26.23;;;15.43;;
71095;SDS011;58753;49.440;11.126;2022-08-19T00:37:34;25.95;;;15.50;;
71095;SDS011;58753;49.440;11.126;2022-08-19T00:40:00;28.60;;;16.83;;
71095;SDS011;58753;49.440;11.126;2022-08-19T00:42:27;29.63;;;16.40;;
71095;SDS011;58753;49.440;11.126;2022-08-19T00:44:53;27.08;;;15.27;;
71095;SDS011;58753;49.440;11.126;2022-08-19T00:47:19;26.30;;;15.80;;
71095;SDS011;58753;49.440;11.126;2022-08-19T00:49:47;27.13;;;16.52;;
71095;SDS011;58753;49.440;11.126;2022-08-19T00:52:29;26.15;;;16.30;;
71095;SDS011;58753;49.440;11.126;2022-08-19T00:55:00;30.13;;;16.90;;
71095;SDS011;58753;49.440;11.126;2022-08-19T00:57:30;26.43;;;16.43;;
71095;SDS011;58753;49.440;11.126;2022-08-19T00:59:59;27.40;;;15.40;;
71095;SDS011;58753;49.440;11.126;2022-08-19T01:02:27;27.10;;;15.45;;
71095;SDS011;58753;49.440;11.126;2022-08-19T01:04:54;26.85;;;15.25;;
71095;SDS011;58753;49.440;11.126;2022-08-19T01:07:20;23.23;;;14.40;;
71095;SDS011;58753;49.440;11.126;2022-08-19T01:09:46;26.60;;;15.43;;
71095;SDS011;58753;49.440;11.126;2022-08-19T01:12:11;24.42;;;15.07;;
71095;SDS011;58753;49.440;11.126;2022-08-19T01:14:37;24.27;;;15.50;;
71095;SDS011;58753;49.440;11.126;2022-08-19T01:17:05;23.23;;;14.75;;
71095;SDS011;58753;49.440;11.126;2022-08-19T01:19:37;24.10;;;15.23;;
71095;SDS011;58753;49.440;11.126;2022-08-19T01:24:39;27.02;;;14.38;;
71095;SDS011;58753;49.440;11.126;2022-08-19T01:27:05;25.00;;;14.70;;
71095;SDS011;58753;49.440;11.126;2022-08-19T01:29:32;23.48;;;13.55;;
71095;SDS011;58753;49.440;11.126;2022-08-19T01:31:58;24.00;;;14.82;;
71095;SDS011;58753;49.440;11.126;2022-08-19T01:34:24;25.37;;;15.33;;
71095;SDS011;58753;49.440;11.126;2022-08-19T01:36:49;20.00;;;12.63;;
71095;SDS011;58753;49.440;11.126;2022-08-19T01:39:16;21.67;;;13.32;;
71095;SDS011;58753;49.440;11.126;2022-08-19T01:41:47;24.73;;;14.17;;
71095;SDS011;58753;49.440;11.126;2022-08-19T01:44:13;21.33;;;13.90;;
71095;SDS011;58753;49.440;11.126;2022-08-19T01:46:39;27.27;;;15.07;;
71095;SDS011;58753;49.440;11.126;2022-08-19T01:49:06;25.05;;;14.30;;
71095;SDS011;58753;49.440;11.126;2022-08-19T01:51:32;23.48;;;13.88;;
71095;SDS011;58753;49.440;11.126;2022-08-19T01:53:58;22.33;;;13.97;;
71095;SDS011;58753;49.440;11.126;2022-08-19T01:56:23;24.75;;;13.65;;
71095;SDS011;58753;49.440;11.126;2022-08-19T01:58:51;22.00;;;14.30;;
71095;SDS011;58753;49.440;11.126;2022-08-19T02:01:25;23.65;;;14.63;;
71095;SDS011;58753;49.440;11.126;2022-08-19T02:03:50;21.77;;;14.07;;
71095;SDS011;58753;49.440;11.126;2022-08-19T02:06:18;24.30;;;14.40;;
71095;SDS011;58753;49.440;11.126;2022-08-19T02:08:44;23.23;;;14.30;;
71095;SDS011;58753;49.440;11.126;2022-08-19T02:11:17;27.50;;;15.50;;
71095;SDS011;58753;49.440;11.126;2022-08-19T02:14:00;24.77;;;14.32;;
71095;SDS011;58753;49.440;11.126;2022-08-19T02:16:28;24.40;;;14.47;;
71095;SDS011;58753;49.440;11.126;2022-08-19T02:18:55;27.73;;;14.73;;
71095;SDS011;58753;49.440;11.126;2022-08-19T02:21:22;26.80;;;15.65;;
71095;SDS011;58753;49.440;11.126;2022-08-19T02:23:48;26.20;;;14.35;;
71095;SDS011;58753;49.440;11.126;2022-08-19T02:26:15;25.17;;;15.60;;
71095;SDS011;58753;49.440;11.126;2022-08-19T02:28:41;24.55;;;14.15;;
71095;SDS011;58753;49.440;11.126;2022-08-19T02:31:11;23.98;;;14.68;;
71095;SDS011;58753;49.440;11.126;2022-08-19T02:33:37;26.92;;;14.50;;
71095;SDS011;58753;49.440;11.126;2022-08-19T02:36:04;27.70;;;14.52;;
71095;SDS011;58753;49.440;11.126;2022-08-19T02:38:30;25.43;;;15.23;;
71095;SDS011;58753;49.440;11.126;2022-08-19T02:40:57;26.63;;;15.33;;
71095;SDS011;58753;49.440;11.126;2022-08-19T02:43:24;25.92;;;14.52;;
71095;SDS011;58753;49.440;11.126;2022-08-19T02:45:51;25.10;;;15.68;;
71095;SDS011;58753;49.440;11.126;2022-08-19T02:48:18;25.63;;;13.50;;
71095;SDS011;58753;49.440;11.126;2022-08-19T02:50:45;23.53;;;14.37;;
71095;SDS011;58753;49.440;11.126;2022-08-19T02:53:12;26.95;;;15.43;;
71095;SDS011;58753;49.440;11.126;2022-08-19T02:55:45;26.20;;;15.63;;
71095;SDS011;58753;49.440;11.126;2022-08-19T02:58:13;26.10;;;14.85;;
71095;SDS011;58753;49.440;11.126;2022-08-19T03:00:43;27.17;;;14.32;;
71095;SDS011;58753;49.440;11.126;2022-08-19T03:03:15;31.97;;;16.30;;
71095;SDS011;58753;49.440;11.126;2022-08-19T03:05:41;26.98;;;15.23;;
71095;SDS011;58753;49.440;11.126;2022-08-19T03:08:08;24.73;;;15.38;;
71095;SDS011;58753;49.440;11.126;2022-08-19T03:10:41;23.08;;;14.55;;
71095;SDS011;58753;49.440;11.126;2022-08-19T03:13:12;25.27;;;14.95;;
71095;SDS011;58753;49.440;11.126;2022-08-19T03:15:40;25.00;;;15.47;;
71095;SDS011;58753;49.440;11.126;2022-08-19T03:18:10;30.17;;;15.77;;
71095;SDS011;58753;49.440;11.126;2022-08-19T03:20:39;27.83;;;15.13;;
71095;SDS011;58753;49.440;11.126;2022-08-19T03:23:06;27.70;;;15.73;;
71095;SDS011;58753;49.440;11.126;2022-08-19T03:25:35;26.43;;;16.07;;
71095;SDS011;58753;49.440;11.126;2022-08-19T03:28:02;25.35;;;15.05;;
71095;SDS011;58753;49.440;11.126;2022-08-19T03:30:28;27.37;;;16.07;;
71095;SDS011;58753;49.440;11.126;2022-08-19T03:35:18;29.60;;;16.33;;
71095;SDS011;58753;49.440;11.126;2022-08-19T03:37:45;23.87;;;13.90;;
71095;SDS011;58753;49.440;11.126;2022-08-19T03:40:10;26.30;;;15.02;;
71095;SDS011;58753;49.440;11.126;2022-08-19T03:42:36;24.17;;;14.43;;
71095;SDS011;58753;49.440;11.126;2022-08-19T03:45:01;24.10;;;14.07;;
71095;SDS011;58753;49.440;11.126;2022-08-19T03:47:27;26.40;;;14.93;;
71095;SDS011;58753;49.440;11.126;2022-08-19T03:49:52;24.13;;;14.50;;
71095;SDS011;58753;49.440;11.126;2022-08-19T03:52:18;26.05;;;14.30;;
71095;SDS011;58753;49.440;11.126;2022-08-19T03:54:44;24.13;;;14.40;;
71095;SDS011;58753;49.440;11.126;2022-08-19T03:57:09;24.27;;;14.57;;
71095;SDS011;58753;49.440;11.126;2022-08-19T03:59:36;25.60;;;15.40;;
71095;SDS011;58753;49.440;11.126;2022-08-19T04:02:09;24.05;;;14.23;;
71095;SDS011;58753;49.440;11.126;2022-08-19T04:04:36;24.70;;;14.07;;
71095;SDS011;58753;49.440;11.126;2022-08-19T04:07:03;24.83;;;14.17;;
71095;SDS011;58753;49.440;11.126;2022-08-19T04:09:29;23.90;;;14.75;;
71095;SDS011;58753;49.440;11.126;2022-08-19T04:11:55;26.42;;;14.32;;
71095;SDS011;58753;49.440;11.126;2022-08-19T04:14:26;29.90;;;15.90;;
71095;SDS011;58753;49.440;11.126;2022-08-19T04:16:55;27.50;;;15.93;;
71095;SDS011;58753;49.440;11.126;2022-08-19T04:19:20;26.38;;;15.70;;
71095;SDS011;58753;49.440;11.126;2022-08-19T04:21:49;27.10;;;15.30;;
71095;SDS011;58753;49.440;11.126;2022-08-19T04:24:18;26.55;;;15.57;;
71095;SDS011;58753;49.440;11.126;2022-08-19T04:41:06;28.37;;;16.67;;
71095;SDS011;58753;49.440;11.126;2022-08-19T04:43:50;29.27;;;15.98;;
71095;SDS011;58753;49.440;11.126;2022-08-19T04:46:16;28.57;;;16.27;;
71095;SDS011;58753;49.440;11.126;2022-08-19T04:58:06;25.77;;;15.23;;
71095;SDS011;58753;49.440;11.126;2022-08-19T05:00:31;27.23;;;14.80;;
71095;SDS011;58753;49.440;11.126;2022-08-19T05:02:57;25.60;;;14.50;;
71095;SDS011;58753;49.440;11.126;2022-08-19T05:05:22;24.92;;;14.00;;
71095;SDS011;58753;49.440;11.126;2022-08-19T05:07:48;28.57;;;14.60;;
71095;SDS011;58753;49.440;11.126;2022-08-19T05:10:13;26.03;;;15.13;;
71095;SDS011;58753;49.440;11.126;2022-08-19T05:12:39;26.38;;;14.55;;
71095;SDS011;58753;49.440;11.126;2022-08-19T05:15:05;24.93;;;15.00;;
71095;SDS011;58753;49.440;11.126;2022-08-19T05:17:33;23.55;;;14.70;;
71095;SDS011;58753;49.440;11.126;2022-08-19T05:19:58;23.30;;;14.70;;
71095;SDS011;58753;49.440;11.126;2022-08-19T05:22:43;26.60;;;14.93;;
71095;SDS011;58753;49.440;11.126;2022-08-19T05:25:12;26.67;;;13.75;;
71095;SDS011;58753;49.440;11.126;2022-08-19T05:27:40;25.35;;;14.02;;
71095;SDS011;58753;49.440;11.126;2022-08-19T05:30:07;25.83;;;14.93;;
71095;SDS011;58753;49.440;11.126;2022-08-19T05:32:33;22.70;;;14.00;;
71095;SDS011;58753;49.440;11.126;2022-08-19T05:34:59;25.05;;;14.25;;
71095;SDS011;58753;49.440;11.126;2022-08-19T05:37:24;21.77;;;13.27;;
71095;SDS011;58753;49.440;11.126;2022-08-19T05:47:55;20.27;;;12.57;;
71095;SDS011;58753;49.440;11.126;2022-08-19T05:50:20;24.40;;;14.13;;
71095;SDS011;58753;49.440;11.126;2022-08-19T05:52:46;19.23;;;12.57;;
71095;SDS011;58753;49.440;11.126;2022-08-19T05:55:12;25.58;;;14.50;;
71095;SDS011;58753;49.440;11.126;2022-08-19T05:57:37;20.87;;;12.53;;
71095;SDS011;58753;49.440;11.126;2022-08-19T06:00:04;19.65;;;12.80;;
71095;SDS011;58753;49.440;11.126;2022-08-19T06:02:34;26.98;;;14.20;;
71095;SDS011;58753;49.440;11.126;2022-08-19T06:05:00;21.63;;;12.40;;
71095;SDS011;58753;49.440;11.126;2022-08-19T06:07:27;24.48;;;14.20;;
71095;SDS011;58753;49.440;11.126;2022-08-19T06:09:53;22.10;;;12.93;;
71095;SDS011;58753;49.440;11.126;2022-08-19T06:12:19;22.15;;;13.38;;
71095;SDS011;58753;49.440;11.126;2022-08-19T06:14:44;23.43;;;14.10;;
71095;SDS011;58753;49.440;11.126;2022-08-19T06:17:10;20.57;;;12.13;;
71095;SDS011;58753;49.440;11.126;2022-08-19T06:19:36;21.42;;;13.10;;
71095;SDS011;58753;49.440;11.126;2022-08-19T06:22:02;22.92;;;12.98;;
71095;SDS011;58753;49.440;11.126;2022-08-19T06:24:29;21.63;;;13.07;;
71095;SDS011;58753;49.440;11.126;2022-08-19T06:26:55;25.43;;;13.60;;
71095;SDS011;58753;49.440;11.126;2022-08-19T06:29:23;23.37;;;13.33;;
71095;SDS011;58753;49.440;11.126;2022-08-19T06:31:51;22.77;;;13.13;;
71095;SDS011;58753;49.440;11.126;2022-08-19T06:34:19;22.25;;;12.85;;
71095;SDS011;58753;49.440;11.126;2022-08-19T06:36:46;23.73;;;13.32;;
71095;SDS011;58753;49.440;11.126;2022-08-19T06:39:18;24.10;;;12.55;;
71095;SDS011;58753;49.440;11.126;2022-08-19T06:41:47;23.83;;;12.73;;
71095;SDS011;58753;49.440;11.126;2022-08-19T06:47:15;20.70;;;11.93;;
71095;SDS011;58753;49.440;11.126;2022-08-19T06:49:43;18.73;;;12.68;;
71095;SDS011;58753;49.440;11.126;2022-08-19T06:52:09;20.98;;;11.23;;
71095;SDS011;58753;49.440;11.126;2022-08-19T06:54:37;18.85;;;10.48;;
71095;SDS011;58753;49.440;11.126;2022-08-19T06:57:04;19.07;;;10.73;;
71095;SDS011;58753;49.440;11.126;2022-08-19T06:59:30;16.83;;;9.87;;
71095;SDS011;58753;49.440;11.126;2022-08-19T07:01:58;17.00;;;10.02;;
71095;SDS011;58753;49.440;11.126;2022-08-19T07:04:29;16.77;;;10.52;;
71095;SDS011;58753;49.440;11.126;2022-08-19T07:07:03;16.73;;;9.60;;
71095;SDS011;58753;49.440;11.126;2022-08-19T07:09:34;18.30;;;10.02;;
71095;SDS011;58753;49.440;11.126;2022-08-19T07:12:03;14.93;;;9.32;;
71095;SDS011;58753;49.440;11.126;2022-08-19T07:14:31;12.83;;;8.47;;
71095;SDS011;58753;49.440;11.126;2022-08-19T07:17:02;12.83;;;7.97;;
71095;SDS011;58753;49.440;11.126;2022-08-19T07:19:28;17.27;;;8.75;;
71095;SDS011;58753;49.440;11.126;2022-08-19T07:21:54;13.25;;;8.55;;
71095;SDS011;58753;49.440;11.126;2022-08-19T07:24:21;13.20;;;8.20;;
71095;SDS011;58753;49.440;11.126;2022-08-19T07:26:52;13.80;;;8.33;;
71095;SDS011;58753;49.440;11.126;2022-08-19T07:29:20;11.60;;;6.93;;
71095;SDS011;58753;49.440;11.126;2022-08-19T07:31:48;13.82;;;7.97;;
71095;SDS011;58753;49.440;11.126;2022-08-19T07:34:15;11.88;;;7.32;;
71095;SDS011;58753;49.440;11.126;2022-08-19T07:36:40;12.43;;;6.93;;
71095;SDS011;58753;49.440;11.126;2022-08-19T07:39:08;17.02;;;8.00;;
71095;SDS011;58753;49.440;11.126;2022-08-19T07:41:36;12.88;;;8.52;;
71095;SDS011;58753;49.440;11.126;2022-08-19T07:44:02;12.23;;;7.28;;
71095;SDS011;58753;49.440;11.126;2022-08-19T07:46:32;11.98;;;7.18;;
71095;SDS011;58753;49.440;11.126;2022-08-19T07:48:59;12.73;;;6.80;;
71095;SDS011;58753;49.440;11.126;2022-08-19T07:51:25;12.47;;;7.80;;
71095;SDS011;58753;49.440;11.126;2022-08-19T07:53:51;11.45;;;7.50;;
71095;SDS011;58753;49.440;11.126;2022-08-19T07:56:17;12.23;;;8.30;;
71095;SDS011;58753;49.440;11.126;2022-08-19T07:58:45;12.17;;;7.33;;
71095;SDS011;58753;49.440;11.126;2022-08-19T08:01:13;13.48;;;7.78;;
71095;SDS011;58753;49.440;11.126;2022-08-19T08:03:44;13.55;;;7.97;;
71095;SDS011;58753;49.440;11.126;2022-08-19T08:06:28;13.35;;;7.85;;
71095;SDS011;58753;49.440;11.126;2022-08-19T08:09:13;13.43;;;8.63;;
71095;SDS011;58753;49.440;11.126;2022-08-19T08:11:54;13.32;;;8.30;;
71095;SDS011;58753;49.440;11.126;2022-08-19T08:14:50;12.95;;;8.77;;
71095;SDS011;58753;49.440;11.126;2022-08-19T08:17:16;17.90;;;9.43;;
71095;SDS011;58753;49.440;11.126;2022-08-19T08:19:43;16.40;;;8.97;;
71095;SDS011;58753;49.440;11.126;2022-08-19T08:22:10;15.52;;;8.93;;
71095;SDS011;58753;49.440;11.126;2022-08-19T08:24:56;12.65;;;7.72;;
71095;SDS011;58753;49.440;11.126;2022-08-19T08:27:26;14.90;;;8.93;;
71095;SDS011;58753;49.440;11.126;2022-08-19T08:29:54;14.93;;;8.98;;
71095;SDS011;58753;49.440;11.126;2022-08-19T08:32:19;15.60;;;9.87;;
71095;SDS011;58753;49.440;11.126;2022-08-19T08:34:45;16.83;;;9.50;;
71095;SDS011;58753;49.440;11.126;2022-08-19T08:37:10;17.00;;;9.27;;
71095;SDS011;58753;49.440;11.126;2022-08-19T08:39:36;17.07;;;9.00;;
71095;SDS011;58753;49.440;11.126;2022-08-19T08:42:11;16.67;;;8.93;;
71095;SDS011;58753;49.440;11.126;2022-08-19T08:44:53;15.77;;;8.50;;
71095;SDS011;58753;49.440;11.126;2022-08-19T08:47:20;14.80;;;8.20;;
71095;SDS011;58753;49.440;11.126;2022-08-19T08:49:50;15.63;;;8.70;;
71095;SDS011;58753;49.440;11.126;2022-08-19T08:52:24;14.38;;;8.80;;
71095;SDS011;58753;49.440;11.126;2022-08-19T08:54:55;15.90;;;8.10;;
71095;SDS011;58753;49.440;11.126;2022-08-19T08:57:49;15.70;;;8.43;;
71095;SDS011;58753;49.440;11.126;2022-08-19T09:00:30;16.50;;;8.80;;
71095;SDS011;58753;49.440;11.126;2022-08-19T09:03:00;17.05;;;8.95;;
71095;SDS011;58753;49.440;11.126;2022-08-19T09:08:33;15.40;;;8.57;;
71095;SDS011;58753;49.440;11.126;2022-08-19T09:11:03;14.45;;;8.85;;
71095;SDS011;58753;49.440;11.126;2022-08-19T09:13:35;15.52;;;8.48;;
71095;SDS011;58753;49.440;11.126;2022-08-19T09:18:42;16.87;;;8.70;;
71095;SDS011;58753;49.440;11.126;2022-08-19T09:21:16;18.15;;;8.98;;
71095;SDS011;58753;49.440;11.126;2022-08-19T09:23:42;19.27;;;10.10;;
71095;SDS011;58753;49.440;11.126;2022-08-19T09:26:12;17.50;;;9.43;;
71095;SDS011;58753;49.440;11.126;2022-08-19T09:28:40;20.15;;;10.52;;
71095;SDS011;58753;49.440;11.126;2022-08-19T09:31:09;20.42;;;11.38;;
71095;SDS011;58753;49.440;11.126;2022-08-19T09:33:35;19.48;;;12.82;;
71095;SDS011;58753;49.440;11.126;2022-08-19T09:36:06;22.15;;;12.23;;
71095;SDS011;58753;49.440;11.126;2022-08-19T09:38:33;20.45;;;12.20;;
71095;SDS011;58753;49.440;11.126;2022-08-19T09:41:03;26.27;;;13.60;;
71095;SDS011;58753;49.440;11.126;2022-08-19T09:43:30;23.40;;;12.40;;
71095;SDS011;58753;49.440;11.126;2022-08-19T09:45:57;23.30;;;12.73;;
71095;SDS011;58753;49.440;11.126;2022-08-19T09:48:22;23.35;;;12.20;;
71095;SDS011;58753;49.440;11.126;2022-08-19T09:50:48;22.00;;;11.87;;
71095;SDS011;58753;49.440;11.126;2022-08-19T09:53:15;20.58;;;12.23;;
71095;SDS011;58753;49.440;11.126;2022-08-19T09:55:43;22.93;;;12.23;;
71095;SDS011;58753;49.440;11.126;2022-08-19T09:58:09;24.63;;;13.38;;
71095;SDS011;58753;49.440;11.126;2022-08-19T10:00:36;22.30;;;12.05;;
71095;SDS011;58753;49.440;11.126;2022-08-19T10:03:03;20.88;;;12.88;;
71095;SDS011;58753;49.440;11.126;2022-08-19T10:05:28;19.90;;;11.60;;
71095;SDS011;58753;49.440;11.126;2022-08-19T10:08:12;23.73;;;12.50;;
71095;SDS011;58753;49.440;11.126;2022-08-19T10:10:37;23.13;;;12.07;;
71095;SDS011;58753;49.440;11.126;2022-08-19T10:13:03;23.97;;;12.53;;
71095;SDS011;58753;49.440;11.126;2022-08-19T10:15:28;19.52;;;10.90;;
71095;SDS011;58753;49.440;11.126;2022-08-19T10:17:54;21.63;;;11.50;;
71095;SDS011;58753;49.440;11.126;2022-08-19T10:20:20;20.50;;;10.65;;
71095;SDS011;58753;49.440;11.126;2022-08-19T10:22:46;18.75;;;11.45;;
71095;SDS011;58753;49.440;11.126;2022-08-19T10:25:12;20.10;;;11.80;;
71095;SDS011;58753;49.440;11.126;2022-08-19T10:27:39;21.90;;;12.27;;
71095;SDS011;58753;49.440;11.126;2022-08-19T10:30:05;21.35;;;11.95;;
71095;SDS011;58753;49.440;11.126;2022-08-19T10:32:31;20.43;;;12.20;;
71095;SDS011;58753;49.440;11.126;2022-08-19T10:34:56;17.37;;;10.67;;
71095;SDS011;58753;49.440;11.126;2022-08-19T10:37:22;20.87;;;11.73;;
71095;SDS011;58753;49.440;11.126;2022-08-19T10:39:48;21.50;;;11.60;;
71095;SDS011;58753;49.440;11.126;2022-08-19T10:42:13;21.35;;;11.25;;
71095;SDS011;58753;49.440;11.126;2022-08-19T10:44:39;20.70;;;10.83;;
71095;SDS011;58753;49.440;11.126;2022-08-19T10:47:04;21.13;;;11.15;;
71095;SDS011;58753;49.440;11.126;2022-08-19T10:49:30;24.42;;;11.70;;
71095;SDS011;58753;49.440;11.126;2022-08-19T10:51:57;21.20;;;11.83;;
71095;SDS011;58753;49.440;11.126;2022-08-19T10:54:41;21.38;;;11.07;;
71095;SDS011;58753;49.440;11.126;2022-08-19T10:57:42;20.63;;;11.32;;
71095;SDS011;58753;49.440;11.126;2022-08-19T11:00:08;26.57;;;11.63;;
71095;SDS011;58753;49.440;11.126;2022-08-19T11:02:34;20.45;;;11.20;;
71095;SDS011;58753;49.440;11.126;2022-08-19T11:04:59;16.37;;;10.60;;
71095;SDS011;58753;49.440;11.126;2022-08-19T11:07:25;20.25;;;10.90;;
71095;SDS011;58753;49.440;11.126;2022-08-19T11:09:51;26.05;;;11.77;;
71095;SDS011;58753;49.440;11.126;2022-08-19T11:12:17;20.33;;;12.17;;
71095;SDS011;58753;49.440;11.126;2022-08-19T11:14:42;22.10;;;11.13;;
71095;SDS011;58753;49.440;11.126;2022-08-19T11:17:08;19.53;;;10.00;;
71095;SDS011;58753;49.440;11.126;2022-08-19T11:19:33;21.25;;;11.13;;
71095;SDS011;58753;49.440;11.126;2022-08-19T11:22:00;19.90;;;11.85;;
71095;SDS011;58753;49.440;11.126;2022-08-19T11:24:28;18.65;;;11.43;;
71095;SDS011;58753;49.440;11.126;2022-08-19T11:26:58;21.77;;;11.53;;
71095;SDS011;58753;49.440;11.126;2022-08-19T11:29:30;22.30;;;12.30;;
71095;SDS011;58753;49.440;11.126;2022-08-19T11:31:56;22.27;;;12.43;;
71095;SDS011;58753;49.440;11.126;2022-08-19T11:34:24;18.90;;;12.30;;
71095;SDS011;58753;49.440;11.126;2022-08-19T11:36:52;23.20;;;12.63;;
71095;SDS011;58753;49.440;11.126;2022-08-19T11:39:18;21.10;;;12.47;;
71095;SDS011;58753;49.440;11.126;2022-08-19T11:41:46;21.75;;;12.30;;
71095;SDS011;58753;49.440;11.126;2022-08-19T11:44:11;19.77;;;11.73;;
71095;SDS011;58753;49.440;11.126;2022-08-19T11:46:38;25.38;;;11.85;;
71095;SDS011;58753;49.440;11.126;2022-08-19T11:49:05;19.88;;;11.98;;
71095;SDS011;58753;49.440;11.126;2022-08-19T11:51:32;18.55;;;10.85;;
71095;SDS011;58753;49.440;11.126;2022-08-19T11:53:59;21.10;;;12.48;;
71095;SDS011;58753;49.440;11.126;2022-08-19T11:56:26;21.40;;;12.03;;
71095;SDS011;58753;49.440;11.126;2022-08-19T11:58:52;24.90;;;12.97;;
71095;SDS011;58753;49.440;11.126;2022-08-19T12:01:20;25.17;;;13.68;;
71095;SDS011;58753;49.440;11.126;2022-08-19T12:03:47;23.17;;;13.43;;
71095;SDS011;58753;49.440;11.126;2022-08-19T12:06:15;22.42;;;11.90;;
71095;SDS011;58753;49.440;11.126;2022-08-19T12:08:44;23.15;;;12.60;;
71095;SDS011;58753;49.440;11.126;2022-08-19T12:11:11;21.67;;;12.15;;
71095;SDS011;58753;49.440;11.126;2022-08-19T12:13:40;20.63;;;11.77;;
71095;SDS011;58753;49.440;11.126;2022-08-19T12:16:07;24.00;;;13.77;;
71095;SDS011;58753;49.440;11.126;2022-08-19T12:18:37;22.17;;;12.27;;
71095;SDS011;58753;49.440;11.126;2022-08-19T12:21:03;23.83;;;13.10;;
71095;SDS011;58753;49.440;11.126;2022-08-19T12:23:29;22.30;;;12.43;;
71095;SDS011;58753;49.440;11.126;2022-08-19T12:25:54;21.27;;;12.17;;
71095;SDS011;58753;49.440;11.126;2022-08-19T12:28:22;21.05;;;13.15;;
71095;SDS011;58753;49.440;11.126;2022-08-19T12:30:50;23.42;;;12.85;;
71095;SDS011;58753;49.440;11.126;2022-08-19T12:33:16;21.33;;;12.23;;
71095;SDS011;58753;49.440;11.126;2022-08-19T12:35:43;23.05;;;12.88;;
71095;SDS011;58753;49.440;11.126;2022-08-19T12:38:11;21.35;;;12.30;;
71095;SDS011;58753;49.440;11.126;2022-08-19T12:40:39;22.15;;;12.48;;
71095;SDS011;58753;49.440;11.126;2022-08-19T12:43:05;20.95;;;12.40;;
71095;SDS011;58753;49.440;11.126;2022-08-19T12:45:32;23.80;;;13.47;;
71095;SDS011;58753;49.440;11.126;2022-08-19T12:47:57;22.90;;;13.83;;
71095;SDS011;58753;49.440;11.126;2022-08-19T12:50:23;25.40;;;13.53;;
71095;SDS011;58753;49.440;11.126;2022-08-19T12:52:48;27.25;;;13.80;;
71095;SDS011;58753;49.440;11.126;2022-08-19T12:55:14;24.70;;;14.23;;
71095;SDS011;58753;49.440;11.126;2022-08-19T12:57:40;22.80;;;13.63;;
71095;SDS011;58753;49.440;11.126;2022-08-19T13:00:07;28.92;;;15.13;;
71095;SDS011;58753;49.440;11.126;2022-08-19T13:02:37;28.27;;;14.55;;
71095;SDS011;58753;49.440;11.126;2022-08-19T13:05:04;28.25;;;15.90;;
71095;SDS011;58753;49.440;11.126;2022-08-19T13:07:31;23.98;;;14.68;;
71095;SDS011;58753;49.440;11.126;2022-08-19T13:09:57;24.93;;;15.20;;
71095;SDS011;58753;49.440;11.126;2022-08-19T13:12:23;28.00;;;14.82;;
71095;SDS011;58753;49.440;11.126;2022-08-19T13:14:51;25.95;;;14.00;;
71095;SDS011;58753;49.440;11.126;2022-08-19T13:17:18;26.45;;;14.85;;
71095;SDS011;58753;49.440;11.126;2022-08-19T13:19:44;31.50;;;15.93;;
71095;SDS011;58753;49.440;11.126;2022-08-19T13:22:10;31.40;;;15.77;;
71095;SDS011;58753;49.440;11.126;2022-08-19T13:24:37;26.60;;;14.23;;
71095;SDS011;58753;49.440;11.126;2022-08-19T13:27:02;30.77;;;15.80;;
71095;SDS011;58753;49.440;11.126;2022-08-19T13:29:28;32.53;;;16.92;;
71095;SDS011;58753;49.440;11.126;2022-08-19T13:32:12;32.78;;;16.60;;
71095;SDS011;58753;49.440;11.126;2022-08-19T13:34:56;33.53;;;17.23;;
71095;SDS011;58753;49.440;11.126;2022-08-19T13:37:22;30.10;;;16.40;;
71095;SDS011;58753;49.440;11.126;2022-08-19T13:40:06;28.95;;;16.48;;
71095;SDS011;58753;49.440;11.126;2022-08-19T13:42:36;34.88;;;16.20;;
71095;SDS011;58753;49.440;11.126;2022-08-19T13:45:01;32.07;;;16.53;;
71095;SDS011;58753;49.440;11.126;2022-08-19T13:47:27;34.43;;;17.43;;
71095;SDS011;58753;49.440;11.126;2022-08-19T13:49:53;34.45;;;17.77;;
71095;SDS011;58753;49.440;11.126;2022-08-19T13:52:18;32.40;;;17.37;;
71095;SDS011;58753;49.440;11.126;2022-08-19T13:54:44;37.03;;;18.27;;
71095;SDS011;58753;49.440;11.126;2022-08-19T13:57:09;28.17;;;16.33;;
71095;SDS011;58753;49.440;11.126;2022-08-19T13:59:34;31.77;;;16.47;;
71095;SDS011;58753;49.440;11.126;2022-08-19T14:02:00;32.33;;;16.63;;
71095;SDS011;58753;49.440;11.126;2022-08-19T14:04:25;30.60;;;14.80;;
71095;SDS011;58753;49.440;11.126;2022-08-19T14:06:51;28.20;;;14.70;;
71095;SDS011;58753;49.440;11.126;2022-08-19T14:09:16;25.87;;;14.40;;
71095;SDS011;58753;49.440;11.126;2022-08-19T14:11:42;25.57;;;14.27;;
71095;SDS011;58753;49.440;11.126;2022-08-19T14:14:07;24.42;;;13.68;;
71095;SDS011;58753;49.440;11.126;2022-08-19T14:16:32;25.33;;;13.53;;
71095;SDS011;58753;49.440;11.126;2022-08-19T14:18:58;23.37;;;13.77;;
71095;SDS011;58753;49.440;11.126;2022-08-19T14:21:24;22.15;;;13.40;;
71095;SDS011;58753;49.440;11.126;2022-08-19T14:23:50;23.97;;;12.53;;
71095;SDS011;58753;49.440;11.126;2022-08-19T14:26:17;23.63;;;12.50;;
71095;SDS011;58753;49.440;11.126;2022-08-19T14:28:43;19.52;;;10.27;;
71095;SDS011;58753;49.440;11.126;2022-08-19T14:31:09;14.37;;;9.23;;
71095;SDS011;58753;49.440;11.126;2022-08-19T14:33:36;14.38;;;9.05;;
71095;SDS011;58753;49.440;11.126;2022-08-19T14:36:02;15.70;;;9.75;;
71095;SDS011;58753;49.440;11.126;2022-08-19T14:38:27;18.70;;;9.53;;
71095;SDS011;58753;49.440;11.126;2022-08-19T14:41:19;15.90;;;9.03;;
71095;SDS011;58753;49.440;11.126;2022-08-19T14:43:47;14.38;;;8.57;;
71095;SDS011;58753;49.440;11.126;2022-08-19T14:46:15;13.38;;;7.95;;
71095;SDS011;58753;49.440;11.126;2022-08-19T14:48:44;16.30;;;7.95;;
71095;SDS011;58753;49.440;11.126;2022-08-19T14:51:10;13.20;;;7.10;;
71095;SDS011;58753;49.440;11.126;2022-08-19T14:53:35;14.60;;;7.65;;
71095;SDS011;58753;49.440;11.126;2022-08-19T14:56:01;13.87;;;7.13;;
71095;SDS011;58753;49.440;11.126;2022-08-19T14:58:32;11.98;;;7.35;;
71095;SDS011;58753;49.440;11.126;2022-08-19T15:00:58;13.30;;;7.10;;
71095;SDS011;58753;49.440;11.126;2022-08-19T15:03:24;13.57;;;7.22;;
71095;SDS011;58753;49.440;11.126;2022-08-19T15:05:50;18.95;;;9.30;;
71095;SDS011;58753;49.440;11.126;2022-08-19T15:08:16;17.87;;;8.97;;